createdAt,value
2023-05-07T00:01:56.914Z,88.30
2023-05-07T00:04:42.756Z,88.50
2023-05-07T00:07:27.902Z,88.30
2023-05-07T00:10:13.909Z,88.40
2023-05-07T00:12:59.147Z,88.30
2023-05-07T00:15:44.462Z,88.30
2023-05-07T00:18:29.835Z,88.90
2023-05-07T00:21:15.249Z,89.30
2023-05-07T00:24:00.797Z,89.80
2023-05-07T00:26:46.337Z,90.00
2023-05-07T00:29:31.660Z,89.90
2023-05-07T00:32:16.976Z,89.70
2023-05-07T00:35:02.336Z,89.70
2023-05-07T00:37:47.694Z,89.40
2023-05-07T00:40:33.118Z,89.20
2023-05-07T00:43:18.505Z,89.40
2023-05-07T00:46:03.949Z,89.60
2023-05-07T00:48:50.686Z,89.70
2023-05-07T00:51:36.032Z,89.60
2023-05-07T00:54:22.642Z,89.50
2023-05-07T00:57:09.147Z,89.70
2023-05-07T00:59:54.336Z,89.50
2023-05-07T01:02:40.761Z,89.50
2023-05-07T01:05:27.091Z,89.80
2023-05-07T01:08:13.514Z,89.60
2023-05-07T01:10:59.028Z,89.80
2023-05-07T01:13:44.635Z,89.30
2023-05-07T01:16:29.970Z,89.10
2023-05-07T01:19:20.950Z,89.10
2023-05-07T01:22:10.169Z,89.20
2023-05-07T01:24:57.075Z,89.30
2023-05-07T01:27:42.208Z,89.20
2023-05-07T01:30:28.516Z,89.20
2023-05-07T01:33:16.946Z,89.20
2023-05-07T01:36:05.105Z,89.60
2023-05-07T01:38:51.013Z,89.90
2023-05-07T01:41:36.560Z,90.10
2023-05-07T01:44:22.733Z,90.20
2023-05-07T01:47:08.421Z,90.40
2023-05-07T01:49:54.119Z,90.50
2023-05-07T01:52:39.779Z,90.60
2023-05-07T01:55:25.170Z,90.60
2023-05-07T01:58:11.690Z,90.60
2023-05-07T02:00:57.036Z,90.70
2023-05-07T02:03:42.419Z,90.80
2023-05-07T02:06:28.277Z,91.00
2023-05-07T02:09:16.033Z,90.80
2023-05-07T02:12:04.491Z,90.90
2023-05-07T02:14:49.666Z,90.80
2023-05-07T02:17:35.278Z,90.90
2023-05-07T02:20:20.551Z,90.90
2023-05-07T02:23:05.800Z,90.90
2023-05-07T02:25:51.945Z,90.90
2023-05-07T02:28:37.056Z,91.00
2023-05-07T02:31:22.578Z,91.20
2023-05-07T02:34:07.784Z,91.50
2023-05-07T02:36:53.117Z,91.50
2023-05-07T02:39:38.442Z,91.10
2023-05-07T02:42:23.882Z,91.10
2023-05-07T02:45:09.944Z,91.00
2023-05-07T02:47:55.156Z,90.90
2023-05-07T02:50:40.488Z,90.70
2023-05-07T02:53:30.296Z,90.80
2023-05-07T02:56:15.517Z,90.80
2023-05-07T02:59:00.759Z,90.80
2023-05-07T03:01:46.359Z,90.80
2023-05-07T03:04:32.225Z,90.50
2023-05-07T03:07:17.462Z,90.50
2023-05-07T03:10:03.296Z,90.90
2023-05-07T03:12:48.381Z,91.00
2023-05-07T03:15:33.741Z,91.60
2023-05-07T03:18:19.219Z,91.70
2023-05-07T03:21:04.612Z,91.70
2023-05-07T03:23:49.710Z,91.80
2023-05-07T03:26:35.013Z,92.30
2023-05-07T03:29:20.837Z,92.40
2023-05-07T03:32:06.886Z,92.30
2023-05-07T03:34:51.880Z,92.40
2023-05-07T03:37:37.340Z,92.10
2023-05-07T03:40:22.705Z,92.00
2023-05-07T03:43:08.221Z,91.90
2023-05-07T03:45:53.706Z,91.90
2023-05-07T03:48:39.078Z,91.90
2023-05-07T03:51:24.430Z,91.90
2023-05-07T03:54:09.834Z,91.90
2023-05-07T03:56:55.357Z,91.60
2023-05-07T03:59:40.955Z,91.80
2023-05-07T04:02:26.346Z,91.90
2023-05-07T04:05:11.720Z,91.90
2023-05-07T04:07:57.066Z,92.00
2023-05-07T04:10:42.411Z,91.80
2023-05-07T04:13:27.812Z,91.80
2023-05-07T04:16:13.251Z,91.90
2023-05-07T04:18:58.727Z,92.00
2023-05-07T04:21:44.306Z,91.90
2023-05-07T04:24:33.978Z,92.30
2023-05-07T04:27:19.202Z,92.30
2023-05-07T04:30:05.114Z,92.50
2023-05-07T04:32:50.399Z,93.30
2023-05-07T04:35:36.645Z,93.20
2023-05-07T04:38:21.895Z,94.10
2023-05-07T04:41:07.854Z,94.10
2023-05-07T04:43:52.873Z,94.00
2023-05-07T04:46:38.240Z,93.80
2023-05-07T04:49:23.582Z,93.70
2023-05-07T04:52:08.866Z,93.70
2023-05-07T04:54:54.210Z,93.50
2023-05-07T04:57:41.537Z,93.20
2023-05-07T05:00:27.214Z,93.10
2023-05-07T05:03:12.404Z,93.00
2023-05-07T05:06:00.345Z,92.90
2023-05-07T05:08:45.832Z,92.90
2023-05-07T05:11:31.628Z,92.40
2023-05-07T05:14:17.017Z,92.70
2023-05-07T05:17:02.401Z,92.80
2023-05-07T05:19:47.702Z,92.80
2023-05-07T05:22:33.930Z,92.80
2023-05-07T05:25:19.104Z,92.80
2023-05-07T05:28:04.636Z,93.00
2023-05-07T05:30:50.644Z,92.70
2023-05-07T05:33:36.095Z,92.80
2023-05-07T05:36:21.563Z,92.80
2023-05-07T05:39:06.958Z,92.80
2023-05-07T05:41:52.019Z,92.80
2023-05-07T05:44:37.728Z,92.80
2023-05-07T05:47:23.726Z,92.80
2023-05-07T05:50:09.432Z,92.90
2023-05-07T05:52:54.938Z,92.90
2023-05-07T05:55:40.357Z,92.90
2023-05-07T05:58:25.882Z,92.80
2023-05-07T06:01:12.433Z,92.70
2023-05-07T06:03:57.911Z,93.50
2023-05-07T06:06:43.253Z,93.40
2023-05-07T06:09:29.532Z,93.50
2023-05-07T06:12:15.054Z,93.70
2023-05-07T06:15:00.515Z,93.60
2023-05-07T06:17:45.926Z,93.70
2023-05-07T06:20:31.301Z,93.10
2023-05-07T06:23:18.121Z,93.30
2023-05-07T06:26:04.037Z,92.70
2023-05-07T06:28:49.468Z,93.30
2023-05-07T06:31:34.794Z,93.10
2023-05-07T06:34:20.933Z,93.00
2023-05-07T06:37:07.090Z,93.10
2023-05-07T06:39:52.581Z,92.90
2023-05-07T06:42:38.932Z,92.70
2023-05-07T06:45:26.249Z,93.00
2023-05-07T06:48:12.589Z,93.10
2023-05-07T06:50:59.111Z,93.00
2023-05-07T06:53:44.566Z,93.00
2023-05-07T06:56:30.103Z,93.30
2023-05-07T06:59:16.414Z,93.20
2023-05-07T07:02:02.047Z,93.10
2023-05-07T07:04:47.401Z,93.30
2023-05-07T07:07:32.649Z,93.20
2023-05-07T07:10:18.180Z,93.00
2023-05-07T07:13:03.570Z,93.30
2023-05-07T07:15:49.194Z,92.90
2023-05-07T07:18:34.438Z,93.40
2023-05-07T07:21:19.962Z,92.80
2023-05-07T07:24:05.821Z,92.70
2023-05-07T07:26:50.934Z,92.90
2023-05-07T07:29:36.487Z,92.80
2023-05-07T07:32:21.837Z,92.70
2023-05-07T07:35:07.858Z,92.70
2023-05-07T07:37:53.649Z,92.80
2023-05-07T07:40:38.807Z,92.80
2023-05-07T07:43:24.262Z,92.80
2023-05-07T07:46:09.623Z,93.00
2023-05-07T07:48:55.128Z,92.70
2023-05-07T07:51:41.100Z,92.80
2023-05-07T07:54:26.708Z,92.70
2023-05-07T07:57:12.567Z,92.80
2023-05-07T07:59:58.389Z,92.70
2023-05-07T08:02:43.777Z,92.70
2023-05-07T08:05:29.099Z,92.40
2023-05-07T08:08:14.492Z,92.40
2023-05-07T08:10:59.900Z,92.50
2023-05-07T08:13:46.371Z,92.40
2023-05-07T08:16:31.847Z,92.30
2023-05-07T08:19:17.287Z,92.20
2023-05-07T08:22:04.141Z,92.10
2023-05-07T08:24:49.249Z,92.20
2023-05-07T08:27:34.581Z,92.00
2023-05-07T08:30:20.368Z,92.10
2023-05-07T08:33:05.702Z,92.10
2023-05-07T08:35:51.059Z,91.90
2023-05-07T08:38:36.415Z,91.90
2023-05-07T08:41:21.942Z,91.70
2023-05-07T08:44:13.856Z,91.70
2023-05-07T08:47:00.727Z,91.90
2023-05-07T08:49:46.130Z,91.60
2023-05-07T08:52:31.525Z,91.40
2023-05-07T08:55:18.035Z,91.00
2023-05-07T08:58:03.349Z,90.70
2023-05-07T09:00:48.872Z,91.00
2023-05-07T09:03:34.759Z,91.40
2023-05-07T09:06:20.076Z,91.20
2023-05-07T09:09:06.460Z,91.10
2023-05-07T09:12:00.513Z,90.90
2023-05-07T09:14:47.097Z,91.20
2023-05-07T09:17:32.748Z,91.20
2023-05-07T09:20:18.187Z,91.10
2023-05-07T09:23:04.006Z,90.80
2023-05-07T09:25:49.393Z,90.90
2023-05-07T09:28:35.168Z,91.10
2023-05-07T09:31:21.543Z,90.30
2023-05-07T09:34:07.345Z,90.50
2023-05-07T09:36:52.748Z,90.40
2023-05-07T09:39:45.761Z,90.40
2023-05-07T09:42:31.066Z,90.40
2023-05-07T09:45:17.528Z,89.70
2023-05-07T09:48:06.695Z,90.10
2023-05-07T09:50:56.200Z,90.40
2023-05-07T09:53:42.763Z,89.20
2023-05-07T09:56:28.462Z,88.50
2023-05-07T09:59:17.744Z,89.70
2023-05-07T10:02:05.062Z,88.90
2023-05-07T10:04:51.432Z,88.20
2023-05-07T10:07:37.049Z,89.30
2023-05-07T10:10:22.720Z,88.10
2023-05-07T10:13:11.682Z,88.50
2023-05-07T10:15:58.043Z,88.30
2023-05-07T10:18:44.407Z,87.70
2023-05-07T10:21:31.171Z,88.80
2023-05-07T10:24:34.916Z,87.10
2023-05-07T10:27:20.876Z,86.70
2023-05-07T10:30:27.589Z,84.30
2023-05-07T10:33:16.147Z,84.70
2023-05-07T10:36:03.887Z,84.70
2023-05-07T10:38:49.302Z,84.30
2023-05-07T10:41:34.718Z,83.30
2023-05-07T10:44:30.358Z,83.70
2023-05-07T10:47:19.653Z,82.60
2023-05-07T10:50:05.099Z,83.80
2023-05-07T10:53:22.464Z,84.90
2023-05-07T10:56:19.918Z,83.30
2023-05-07T10:59:31.625Z,80.40
2023-05-07T11:02:17.215Z,82.40
2023-05-07T11:05:23.023Z,80.80
2023-05-07T11:08:09.269Z,80.00
2023-05-07T11:10:57.163Z,80.60
2023-05-07T11:13:50.503Z,79.70
2023-05-07T11:16:37.823Z,79.00
2023-05-07T11:20:09.387Z,78.30
2023-05-07T11:22:56.689Z,77.80
2023-05-07T11:25:42.681Z,77.80
2023-05-07T11:28:32.006Z,77.70
2023-05-07T11:31:23.430Z,75.30
2023-05-07T11:34:09.772Z,75.50
2023-05-07T11:36:56.812Z,75.60
2023-05-07T11:39:42.140Z,76.00
2023-05-07T11:42:32.780Z,76.60
2023-05-07T11:45:27.977Z,75.00
2023-05-07T11:48:17.354Z,76.10
2023-05-07T11:51:04.968Z,74.70
2023-05-07T11:53:51.114Z,74.10
2023-05-07T11:56:36.707Z,74.10
2023-05-07T11:59:21.810Z,73.80
2023-05-07T12:02:08.155Z,73.60
2023-05-07T12:04:54.298Z,74.00
2023-05-07T12:07:40.066Z,72.70
2023-05-07T12:10:25.910Z,72.10
2023-05-07T12:13:22.852Z,72.30
2023-05-07T12:16:08.621Z,71.90
2023-05-07T12:18:55.949Z,71.40
2023-05-07T12:21:41.801Z,71.70
2023-05-07T12:24:27.272Z,72.20
2023-05-07T12:27:12.801Z,70.40
2023-05-07T12:30:00.222Z,72.60
2023-05-07T12:32:46.736Z,72.40
2023-05-07T12:35:36.719Z,72.80
2023-05-07T12:38:22.344Z,72.30
2023-05-07T12:41:09.413Z,70.90
2023-05-07T12:43:58.587Z,71.20
2023-05-07T12:46:43.862Z,72.70
2023-05-07T12:49:29.281Z,72.20
2023-05-07T12:52:14.841Z,71.20
2023-05-07T12:55:09.748Z,70.70
2023-05-07T12:57:55.173Z,69.50
2023-05-07T13:00:40.636Z,69.20
2023-05-07T13:03:33.433Z,68.00
2023-05-07T13:06:18.946Z,68.90
2023-05-07T13:09:05.702Z,68.10
2023-05-07T13:11:50.928Z,69.10
2023-05-07T13:14:36.361Z,68.30
2023-05-07T13:17:21.635Z,68.00
2023-05-07T13:20:09.208Z,69.50
2023-05-07T13:22:54.570Z,69.90
2023-05-07T13:25:39.933Z,68.60
2023-05-07T13:28:26.089Z,67.80
2023-05-07T13:31:11.444Z,69.00
2023-05-07T13:33:57.278Z,69.20
2023-05-07T13:36:42.974Z,68.10
2023-05-07T13:39:28.546Z,68.90
2023-05-07T13:42:14.051Z,67.60
2023-05-07T13:44:59.365Z,69.80
2023-05-07T13:47:45.367Z,69.90
2023-05-07T13:50:31.147Z,68.70
2023-05-07T13:53:19.072Z,68.80
2023-05-07T13:56:05.642Z,68.90
2023-05-07T13:58:59.527Z,71.30
2023-05-07T14:01:46.194Z,71.50
2023-05-07T14:04:32.074Z,71.60
2023-05-07T14:07:17.303Z,72.20
2023-05-07T14:10:03.479Z,70.20
2023-05-07T14:12:48.951Z,71.00
2023-05-07T14:15:34.293Z,71.00
2023-05-07T14:18:19.549Z,70.60
2023-05-07T14:21:07.276Z,70.20
2023-05-07T14:23:52.420Z,71.30
2023-05-07T14:26:37.850Z,69.90
2023-05-07T14:29:24.342Z,70.60
2023-05-07T14:32:09.979Z,69.40
2023-05-07T14:34:55.134Z,71.00
2023-05-07T14:37:40.767Z,70.70
2023-05-07T14:40:26.102Z,72.90
2023-05-07T14:43:11.464Z,73.20
2023-05-07T14:45:56.833Z,71.40
2023-05-07T14:48:42.624Z,71.50
2023-05-07T14:51:29.394Z,71.30
2023-05-07T14:54:15.545Z,71.80
2023-05-07T14:57:01.098Z,70.50
2023-05-07T14:59:46.714Z,71.10
2023-05-07T15:02:31.915Z,70.90
2023-05-07T15:05:18.417Z,71.80
2023-05-07T15:08:03.975Z,72.30
2023-05-07T15:10:49.533Z,72.60
2023-05-07T15:13:35.121Z,71.90
2023-05-07T15:16:20.792Z,72.60
2023-05-07T15:19:06.119Z,71.40
2023-05-07T15:21:51.401Z,73.10
2023-05-07T15:24:37.445Z,72.30
2023-05-07T15:27:23.112Z,72.30
2023-05-07T15:30:11.167Z,72.30
2023-05-07T15:32:56.723Z,71.30
2023-05-07T15:35:42.201Z,70.10
2023-05-07T15:38:27.721Z,70.80
2023-05-07T15:41:13.170Z,72.10
2023-05-07T15:43:58.530Z,73.30
2023-05-07T15:46:44.192Z,74.90
2023-05-07T15:49:29.612Z,75.60
2023-05-07T15:52:15.912Z,75.80
2023-05-07T15:55:01.270Z,75.80
2023-05-07T15:57:46.251Z,76.50
2023-05-07T16:00:31.554Z,76.60
2023-05-07T16:03:18.908Z,75.90
2023-05-07T16:06:05.035Z,74.40
2023-05-07T16:08:50.543Z,76.70
2023-05-07T16:11:36.308Z,77.70
2023-05-07T16:14:22.076Z,77.30
2023-05-07T16:17:08.371Z,77.90
2023-05-07T16:19:53.802Z,78.10
2023-05-07T16:22:39.201Z,78.30
2023-05-07T16:25:24.578Z,78.20
2023-05-07T16:28:09.841Z,78.00
2023-05-07T16:30:55.678Z,78.50
2023-05-07T16:33:41.065Z,79.30
2023-05-07T16:36:29.893Z,79.80
2023-05-07T16:39:14.982Z,79.90
2023-05-07T16:42:00.583Z,80.10
2023-05-07T16:44:45.772Z,80.40
2023-05-07T16:47:31.530Z,80.40
2023-05-07T16:50:17.042Z,80.30
2023-05-07T16:53:02.440Z,81.10
2023-05-07T16:55:47.750Z,80.30
2023-05-07T16:58:35.930Z,80.60
2023-05-07T17:01:21.069Z,81.10
2023-05-07T17:04:06.553Z,80.80
2023-05-07T17:06:52.697Z,81.50
2023-05-07T17:09:37.885Z,81.80
2023-05-07T17:12:23.528Z,81.90
2023-05-07T17:15:10.488Z,82.30
2023-05-07T17:17:56.147Z,81.90
2023-05-07T17:20:41.892Z,82.40
2023-05-07T17:23:27.795Z,82.20
2023-05-07T17:26:17.121Z,82.30
2023-05-07T17:29:03.612Z,82.20
2023-05-07T17:31:49.248Z,82.30
2023-05-07T17:34:34.598Z,82.60
2023-05-07T17:37:21.595Z,82.70
2023-05-07T17:40:08.707Z,83.00
2023-05-07T17:42:55.674Z,83.20
2023-05-07T17:45:42.274Z,83.30
2023-05-07T17:48:27.562Z,83.60
2023-05-07T17:51:13.057Z,83.20
2023-05-07T17:53:58.657Z,83.00
2023-05-07T17:56:44.076Z,82.50
2023-05-07T17:59:29.546Z,81.80
2023-05-07T18:02:14.904Z,81.90
2023-05-07T18:05:00.391Z,81.50
2023-05-07T18:07:45.892Z,80.60
2023-05-07T18:10:31.257Z,80.80
2023-05-07T18:13:16.895Z,81.70
2023-05-07T18:16:01.999Z,81.50
2023-05-07T18:18:47.486Z,81.80
2023-05-07T18:21:32.769Z,81.20
2023-05-07T18:24:18.209Z,80.80
2023-05-07T18:27:03.896Z,82.50
2023-05-07T18:29:49.479Z,80.90
2023-05-07T18:32:35.165Z,81.10
2023-05-07T18:35:20.476Z,81.00
2023-05-07T18:38:05.945Z,81.30
2023-05-07T18:40:51.229Z,82.10
2023-05-07T18:43:36.655Z,82.30
2023-05-07T18:46:22.246Z,82.80
2023-05-07T18:49:07.593Z,82.90
2023-05-07T18:51:53.214Z,82.80
2023-05-07T18:54:40.120Z,81.90
2023-05-07T18:57:25.620Z,82.20
2023-05-07T19:00:12.220Z,82.10
2023-05-07T19:02:57.822Z,81.80
2023-05-07T19:05:44.083Z,81.20
2023-05-07T19:08:29.627Z,81.40
2023-05-07T19:11:15.323Z,81.70
2023-05-07T19:14:02.260Z,82.10
2023-05-07T19:16:49.421Z,82.60
2023-05-07T19:19:34.413Z,82.60
2023-05-07T19:22:20.603Z,82.80
2023-05-07T19:25:06.193Z,82.80
2023-05-07T19:27:51.622Z,83.00
2023-05-07T19:30:40.801Z,82.80
2023-05-07T19:33:26.030Z,82.80
2023-05-07T19:36:11.513Z,82.80
2023-05-07T19:38:57.088Z,83.20
2023-05-07T19:41:42.426Z,83.30
2023-05-07T19:44:27.835Z,83.40
2023-05-07T19:47:13.075Z,83.00
2023-05-07T19:49:58.511Z,82.60
2023-05-07T19:52:44.040Z,83.20
2023-05-07T19:55:29.460Z,83.40
2023-05-07T19:58:16.729Z,83.70
2023-05-07T20:01:03.016Z,84.10
2023-05-07T20:03:48.478Z,84.10
2023-05-07T20:06:34.048Z,84.50
2023-05-07T20:09:19.329Z,83.90
2023-05-07T20:12:05.095Z,83.70
2023-05-07T20:14:50.210Z,84.10
2023-05-07T20:17:35.663Z,84.20
2023-05-07T20:20:21.156Z,84.90
2023-05-07T20:23:06.436Z,84.10
2023-05-07T20:25:52.486Z,83.80
2023-05-07T20:28:37.623Z,84.60
2023-05-07T20:31:23.124Z,84.10
2023-05-07T20:34:08.667Z,83.50
2023-05-07T20:36:54.111Z,83.90
2023-05-07T20:39:39.872Z,83.30
2023-05-07T20:42:25.730Z,83.80
2023-05-07T20:45:11.390Z,83.70
2023-05-07T20:47:56.853Z,83.80
2023-05-07T20:50:42.127Z,83.70
2023-05-07T20:53:32.026Z,83.50
2023-05-07T20:56:17.430Z,83.50
2023-05-07T20:59:02.750Z,83.70
2023-05-07T21:01:48.285Z,83.90
2023-05-07T21:04:33.509Z,84.10
2023-05-07T21:07:18.857Z,83.70
2023-05-07T21:10:04.579Z,83.90
2023-05-07T21:12:49.954Z,83.70
2023-05-07T21:15:35.290Z,84.00
2023-05-07T21:18:20.780Z,84.40
2023-05-07T21:21:10.073Z,84.40
2023-05-07T21:23:55.554Z,84.30
2023-05-07T21:26:40.992Z,84.40
2023-05-07T21:29:26.932Z,84.30
2023-05-07T21:32:12.421Z,84.70
2023-05-07T21:35:00.015Z,84.70
2023-05-07T21:37:45.307Z,84.60
2023-05-07T21:40:30.948Z,84.60
2023-05-07T21:43:16.071Z,84.60
2023-05-07T21:46:03.733Z,84.60
2023-05-07T21:48:48.929Z,84.50
2023-05-07T21:51:34.666Z,84.70
2023-05-07T21:54:19.966Z,84.90
2023-05-07T21:57:05.318Z,85.20
2023-05-07T21:59:50.907Z,85.00
2023-05-07T22:02:36.415Z,84.60
2023-05-07T22:05:21.829Z,85.20
2023-05-07T22:08:07.215Z,84.70
2023-05-07T22:10:52.793Z,84.40
2023-05-07T22:13:38.034Z,84.80
2023-05-07T22:16:23.351Z,84.30
2023-05-07T22:19:08.760Z,84.60
2023-05-07T22:21:54.115Z,84.80
2023-05-07T22:24:40.624Z,84.40
2023-05-07T22:27:26.233Z,84.50
2023-05-07T22:30:11.963Z,84.20
2023-05-07T22:32:57.424Z,84.50
2023-05-07T22:35:42.766Z,84.20
2023-05-07T22:38:28.189Z,84.70
2023-05-07T22:41:13.745Z,84.00
2023-05-07T22:43:59.313Z,84.20
2023-05-07T22:46:44.745Z,84.00
2023-05-07T22:49:30.004Z,84.30
2023-05-07T22:52:15.771Z,84.20
2023-05-07T22:55:01.673Z,84.10
2023-05-07T22:57:47.123Z,83.50
2023-05-07T23:00:32.416Z,84.20
2023-05-07T23:03:17.969Z,84.00
2023-05-07T23:06:03.744Z,83.60
2023-05-07T23:08:49.076Z,84.20
2023-05-07T23:11:34.718Z,84.10
2023-05-07T23:14:20.849Z,84.20
2023-05-07T23:17:07.306Z,84.20
2023-05-07T23:19:52.722Z,84.40
2023-05-07T23:22:38.392Z,84.40
2023-05-07T23:25:23.459Z,84.10
2023-05-07T23:28:09.006Z,84.70
2023-05-07T23:30:54.324Z,84.80
2023-05-07T23:33:39.765Z,84.60
2023-05-07T23:36:25.303Z,84.40
2023-05-07T23:39:10.975Z,84.60
2023-05-07T23:41:56.117Z,84.30
2023-05-07T23:44:41.371Z,83.90
2023-05-07T23:47:26.798Z,84.20
2023-05-07T23:50:12.192Z,84.50
2023-05-07T23:52:57.744Z,84.40
2023-05-07T23:55:43.230Z,84.00
2023-05-07T23:58:28.450Z,84.50
